createdAt,value
2023-03-12T00:02:59.408Z,99487.78
2023-03-12T00:10:17.714Z,99490.03
2023-03-12T00:17:36.025Z,99480.66
2023-03-12T00:24:57.171Z,99476.38
2023-03-12T00:32:15.447Z,99480.47
2023-03-12T00:39:34.165Z,99478.81
2023-03-12T00:46:54.617Z,99476.88
2023-03-12T00:54:13.302Z,99477.75
2023-03-12T01:01:31.529Z,99473.09
2023-03-12T01:08:51.514Z,99478.28
2023-03-12T01:16:10.082Z,99481.97
2023-03-12T01:23:28.552Z,99489.34
2023-03-12T01:30:49.471Z,99486.22
2023-03-12T01:38:08.295Z,99479.84
2023-03-12T01:46:03.392Z,99480.75
2023-03-12T01:53:23.587Z,99475.59
2023-03-12T02:00:42.328Z,99486.16
2023-03-12T02:08:05.645Z,99485.69
2023-03-12T02:15:24.696Z,99491.38
2023-03-12T02:22:44.717Z,99498.44
2023-03-12T02:30:06.374Z,99500.63
2023-03-12T02:37:24.978Z,99509.50
2023-03-12T02:44:43.910Z,99505.63
2023-03-12T02:52:04.811Z,99504.78
2023-03-12T02:59:26.164Z,99505.41
2023-03-12T03:06:48.588Z,99520.19
2023-03-12T03:14:08.217Z,99516.56
2023-03-12T03:21:26.852Z,99529.56
2023-03-12T03:28:45.196Z,99536.59
2023-03-12T03:36:09.170Z,99546.91
2023-03-12T03:43:32.329Z,99556.75
2023-03-12T03:50:50.592Z,99561.13
2023-03-12T03:58:10.574Z,99556.47
2023-03-12T04:13:49.540Z,99560.28
2023-03-12T04:21:16.427Z,99571.28
2023-03-12T04:28:36.049Z,99592.88
2023-03-12T04:35:56.640Z,99593.94
2023-03-12T04:43:15.420Z,99601.31
2023-03-12T04:50:34.759Z,99601.94
2023-03-12T04:57:54.896Z,99607.31
2023-03-12T05:05:15.928Z,99621.66
2023-03-12T05:12:34.929Z,99623.44
2023-03-12T05:19:55.711Z,99631.81
2023-03-12T05:27:14.136Z,99632.59
2023-03-12T05:34:33.685Z,99641.38
2023-03-12T05:41:57.473Z,99644.63
2023-03-12T05:49:19.806Z,99635.84
2023-03-12T05:56:38.893Z,99660.78
2023-03-12T06:04:00.720Z,99673.53
2023-03-12T06:11:22.248Z,99675.81
2023-03-12T06:18:40.476Z,99688.81
2023-03-12T06:26:01.002Z,99690.56
2023-03-12T06:33:20.122Z,99688.59
2023-03-12T06:40:38.266Z,99695.38
2023-03-12T06:47:57.867Z,99713.41
2023-03-12T06:55:16.167Z,99721.09
2023-03-12T07:02:34.550Z,99723.31
2023-03-12T07:09:54.235Z,99734.97
2023-03-12T07:17:15.256Z,99733.38
2023-03-12T07:24:33.480Z,99751.44
2023-03-12T07:31:53.177Z,99751.53
2023-03-12T07:39:14.116Z,99760.78
2023-03-12T07:46:32.604Z,99766.31
2023-03-12T07:53:52.250Z,99776.13
2023-03-12T08:01:10.486Z,99772.34
2023-03-12T08:08:29.265Z,99777.09
2023-03-12T08:15:48.861Z,99779.44
2023-03-12T08:23:07.013Z,99776.59
2023-03-12T08:30:25.318Z,99772.44
2023-03-12T08:37:45.048Z,99772.38
2023-03-12T08:45:03.533Z,99780.19
2023-03-12T08:52:22.076Z,99783.97
2023-03-12T08:59:42.040Z,99781.06
2023-03-12T09:07:02.711Z,99787.00
2023-03-12T09:30:20.803Z,99787.94
2023-03-12T09:37:40.526Z,99781.72
2023-03-12T09:45:01.947Z,99785.50
2023-03-12T09:52:23.083Z,99766.41
2023-03-12T09:59:42.812Z,99776.72
2023-03-12T10:07:05.603Z,99781.94
2023-03-12T10:14:33.705Z,99772.69
2023-03-12T10:21:59.142Z,99773.50
2023-03-12T10:29:20.182Z,99776.94
2023-03-12T10:36:40.699Z,99771.63
2023-03-12T10:44:03.451Z,99781.19
2023-03-12T10:51:21.642Z,99783.69
2023-03-12T10:58:41.327Z,99782.03
2023-03-12T11:06:02.638Z,99784.03
2023-03-12T11:13:28.014Z,99788.84
2023-03-12T11:20:46.787Z,99777.56
2023-03-12T11:28:07.075Z,99773.81
2023-03-12T11:35:33.144Z,99738.28
2023-03-12T11:43:00.421Z,99740.88
2023-03-12T11:50:28.624Z,99741.13
2023-03-12T11:57:58.275Z,99749.38
2023-03-12T12:05:41.818Z,99745.13
2023-03-12T12:13:08.396Z,99742.38
2023-03-12T12:20:34.184Z,99725.25
2023-03-12T12:28:06.890Z,99720.06
2023-03-12T12:35:29.218Z,99726.22
2023-03-12T12:42:55.807Z,99726.44
2023-03-12T12:50:17.815Z,99731.03
2023-03-12T12:57:41.046Z,99727.44
2023-03-12T13:05:01.118Z,99718.81
2023-03-12T13:12:27.589Z,99713.97
2023-03-12T13:19:55.569Z,99707.41
2023-03-12T13:27:24.071Z,99694.72
2023-03-12T13:34:47.143Z,99693.50
2023-03-12T13:42:36.591Z,99706.16
2023-03-12T13:49:56.961Z,99710.84
2023-03-12T13:57:41.351Z,99702.50
2023-03-12T14:05:10.855Z,99699.41
2023-03-12T14:12:33.879Z,99695.13
2023-03-12T14:19:57.906Z,99681.91
2023-03-12T14:27:20.777Z,99684.47
2023-03-12T14:34:43.223Z,99687.41
2023-03-12T14:42:05.103Z,99683.91
2023-03-12T14:49:24.650Z,99679.53
2023-03-12T14:56:45.553Z,99671.03
2023-03-12T15:04:08.012Z,99662.19
2023-03-12T15:11:29.357Z,99650.00
2023-03-12T15:18:49.531Z,99648.25
2023-03-12T15:26:14.099Z,99650.31
2023-03-12T15:33:34.121Z,99643.34
2023-03-12T15:40:54.300Z,99635.94
2023-03-12T15:48:23.881Z,99646.38
2023-03-12T15:55:44.298Z,99638.56
2023-03-12T16:03:25.088Z,99604.25
2023-03-12T16:10:44.048Z,99589.00
2023-03-12T16:18:03.286Z,99591.03
2023-03-12T16:25:23.755Z,99632.16
2023-03-12T16:32:42.086Z,99601.16
2023-03-12T16:40:00.312Z,99597.19
2023-03-12T16:47:20.084Z,99596.09
2023-03-12T16:54:38.370Z,99607.47
2023-03-12T17:01:57.647Z,99597.72
2023-03-12T17:09:17.270Z,99610.03
2023-03-12T17:16:35.745Z,99616.75
2023-03-12T17:23:53.956Z,99620.16
2023-03-12T17:31:14.341Z,99607.38
2023-03-12T17:38:33.566Z,99602.53
2023-03-12T17:45:52.799Z,99608.16
2023-03-12T17:53:16.386Z,99616.09
2023-03-12T18:00:35.509Z,99620.22
2023-03-12T18:07:56.931Z,99589.97
2023-03-12T18:15:16.993Z,99582.56
2023-03-12T18:22:35.437Z,99567.03
2023-03-12T18:29:53.777Z,99587.91
2023-03-12T18:37:13.558Z,99593.97
2023-03-12T18:44:31.913Z,99576.13
2023-03-12T18:51:53.557Z,99572.03
2023-03-12T18:59:14.659Z,99552.72
2023-03-12T19:06:48.141Z,99538.88
2023-03-12T19:14:09.505Z,99532.00
2023-03-12T19:21:29.792Z,99532.56
2023-03-12T19:28:48.132Z,99521.81
2023-03-12T19:36:07.185Z,99509.03
2023-03-12T19:43:27.572Z,99500.53
2023-03-12T19:50:45.977Z,99493.69
2023-03-12T19:58:04.782Z,99505.19
2023-03-12T20:05:24.418Z,99513.06
2023-03-12T20:12:42.981Z,99509.50
2023-03-12T20:20:01.607Z,99507.28
2023-03-12T20:27:21.629Z,99514.78
2023-03-12T20:34:39.866Z,99513.00
2023-03-12T20:41:58.509Z,99505.03
2023-03-12T20:49:18.873Z,99514.09
2023-03-12T20:56:38.402Z,99508.47
2023-03-12T21:03:58.705Z,99506.38
2023-03-12T21:11:18.630Z,99504.47
2023-03-12T21:18:37.190Z,99495.91
2023-03-12T21:26:00.158Z,99497.69
2023-03-12T21:33:20.073Z,99495.94
2023-03-12T21:40:38.875Z,99479.47
2023-03-12T21:47:57.208Z,99476.47
2023-03-12T21:55:17.934Z,99466.25
2023-03-12T22:02:36.184Z,99459.13
2023-03-12T22:09:54.608Z,99470.22
2023-03-12T22:17:14.767Z,99445.28
2023-03-12T22:24:32.993Z,99448.59
2023-03-12T22:31:51.384Z,99436.66
2023-03-12T22:39:11.471Z,99429.84
2023-03-12T22:46:30.289Z,99421.59
2023-03-12T22:53:48.521Z,99403.09
2023-03-12T23:01:09.889Z,99419.94
2023-03-12T23:08:29.064Z,99413.50
2023-03-12T23:15:47.424Z,99404.19
2023-03-12T23:23:07.080Z,99395.44
2023-03-12T23:30:25.293Z,99384.59
2023-03-12T23:37:43.951Z,99374.72
2023-03-12T23:45:03.734Z,99366.63
2023-03-12T23:52:21.917Z,99377.19
2023-03-12T23:59:40.346Z,99377.44
